Time;durP1;ratioP1;P1;durP2;ratioP2;P2;SDS_P1;SDS_P2;PMS_P1;PMS_P2;Temp;Humidity;BMP_temperature;BMP_pressure;BME280_temperature;BME280_humidity;BME280_pressure;Samples;Min_cycle;Max_cycle;Signal;HPM_P1;HPM_P2
2023/11/29 00:00:27;;;;;;;5.72;1.88;;;;;;;7.16;100.00;97252.16;5012929;28;20033;-91
2023/11/29 00:02:53;;;;;;;10.50;1.77;;;;;;;6.80;100.00;97183.91;5010813;28;20499;-93
2023/11/29 00:05:19;;;;;;;8.20;2.42;;;;;;;7.66;100.00;97327.84;5014578;28;20057;-90
2023/11/29 00:07:47;;;;;;;7.72;2.35;;;;;;;7.83;100.00;97357.16;5012964;28;20034;-91
2023/11/29 00:10:13;;;;;;;6.45;1.67;;;;;;;6.57;100.00;97183.00;5014412;28;20688;-92
2023/11/29 00:12:39;;;;;;;8.48;1.65;;;;;;;6.68;100.00;97190.53;5023868;28;20067;-92
2023/11/29 00:15:06;;;;;;;9.13;1.83;;;;;;;7.52;100.00;97338.94;5019917;28;20041;-91
2023/11/29 00:17:32;;;;;;;8.02;1.85;;;;;;;7.49;100.00;97332.00;5022564;28;20049;-92
2023/11/29 00:19:58;;;;;;;3.70;1.60;;;;;;;6.85;100.00;97232.16;5020000;28;20041;-92
2023/11/29 00:22:24;;;;;;;6.50;1.77;;;;;;;7.45;100.00;97359.47;5021859;28;20128;-91
2023/11/29 00:24:51;;;;;;;6.13;1.70;;;;;;;7.49;100.00;97361.09;5022780;28;20049;-92
2023/11/29 00:27:17;;;;;;;11.05;2.30;;;;;;;7.11;100.00;97304.31;5024985;28;20100;-92
2023/11/29 00:29:43;;;;;;;14.95;3.17;;;;;;;7.19;100.00;97342.78;5016231;28;20041;-92
2023/11/29 00:32:10;;;;;;;9.70;4.93;;;;;;;6.98;100.00;97357.66;5017838;28;20046;-90
2023/11/29 00:34:36;;;;;;;10.48;4.47;;;;;;;6.86;100.00;97336.94;5016688;28;20034;-93
2023/11/29 00:37:04;;;;;;;11.30;4.68;;;;;;;6.02;100.00;97194.63;5023317;28;20124;-92
2023/11/29 00:39:30;;;;;;;10.73;4.05;;;;;;;7.27;100.00;97391.91;5018993;28;20112;-92
2023/11/29 00:41:58;;;;;;;13.73;4.03;;;;;;;7.12;100.00;97375.66;5020897;28;20045;-91
2023/11/29 00:44:23;;;;;;;12.55;4.78;;;;;;;6.33;100.00;97258.66;5022763;28;20132;-92
2023/11/29 00:46:49;;;;;;;11.23;4.20;;;;;;;6.65;100.00;97312.13;5011571;28;20105;-92
2023/11/29 00:49:18;;;;;;;16.52;4.90;;;;;;;6.82;100.00;97351.16;5019217;28;20457;-94
2023/11/29 00:51:44;;;;;;;6.32;3.25;;;;;;;6.64;100.00;97331.53;5016053;28;20041;-92
2023/11/29 00:54:10;;;;;;;10.00;3.95;;;;;;;7.08;100.00;97420.75;5022854;28;20124;-93
2023/11/29 00:56:36;;;;;;;10.95;4.15;;;;;;;6.41;100.00;97303.25;5022258;28;20120;-92
2023/11/29 00:59:03;;;;;;;11.40;4.30;;;;;;;7.02;100.00;97423.59;5026179;28;20559;-91
2023/11/29 01:01:29;;;;;;;8.13;3.65;;;;;;;6.74;100.00;97366.41;5018844;28;20450;-92
2023/11/29 01:03:55;;;;;;;7.35;3.38;;;;;;;6.55;100.00;97356.50;5022479;28;20041;-94
2023/11/29 01:06:21;;;;;;;7.68;4.00;;;;;;;6.14;100.00;97273.41;5024618;28;20049;-92
2023/11/29 01:08:47;;;;;;;10.68;3.78;;;;;;;5.67;100.00;97242.31;5025889;28;20034;-93
2023/11/29 01:11:12;;;;;;;10.32;3.00;;;;;;;6.42;100.00;97357.81;5022052;28;20128;-92
2023/11/29 01:13:38;;;;;;;8.68;3.20;;;;;;;5.82;100.00;97306.06;5020388;28;20538;-91
2023/11/29 01:16:06;;;;;;;10.60;3.83;;;;;;;6.54;100.00;97377.66;5010935;28;20402;-93
2023/11/29 01:18:33;;;;;;;9.00;3.05;;;;;;;6.40;100.00;97395.72;5022378;28;20045;-92
2023/11/29 01:20:59;;;;;;;8.02;2.80;;;;;;;5.93;100.00;97291.59;5018915;28;20048;-91
2023/11/29 01:23:25;;;;;;;10.43;3.53;;;;;;;6.44;100.00;97378.88;5021436;28;20041;-89
2023/11/29 01:25:51;;;;;;;10.88;3.17;;;;;;;6.34;100.00;97368.63;5023461;28;20064;-92
2023/11/29 01:28:17;;;;;;;7.65;3.88;;;;;;;6.23;100.00;97370.75;5018205;28;20456;-92
2023/11/29 01:30:43;;;;;;;14.45;3.75;;;;;;;6.40;100.00;97398.34;5016392;28;20376;-91
2023/11/29 01:33:10;;;;;;;11.57;3.10;;;;;;;5.99;100.00;97345.16;5018938;28;20040;-94
2023/11/29 01:35:36;;;;;;;14.55;4.43;;;;;;;5.53;100.00;97321.88;5017664;28;20084;-90
2023/11/29 01:38:01;;;;;;;13.60;3.25;;;;;;;6.11;100.00;97377.25;5018835;28;20061;-92
2023/11/29 01:40:28;;;;;;;11.32;2.88;;;;;;;6.00;100.00;97378.53;5018505;28;20565;-91
2023/11/29 01:42:53;;;;;;;16.60;3.63;;;;;;;5.60;100.00;97324.34;5018583;28;20045;-91
2023/11/29 01:45:19;;;;;;;11.57;3.20;;;;;;;5.53;100.00;97303.41;5016754;28;20505;-92
2023/11/29 01:47:45;;;;;;;8.80;2.65;;;;;;;5.78;100.00;97318.47;5035992;28;20033;-90
2023/11/29 01:50:16;;;;;;;9.13;2.33;;;;;;;6.04;100.00;97362.53;5024908;28;20443;-91
2023/11/29 01:52:43;;;;;;;10.68;2.03;;;;;;;5.88;100.00;97343.66;5017234;28;20403;-91
2023/11/29 01:55:12;;;;;;;8.07;2.47;;;;;;;6.28;100.00;97411.03;5018952;28;20033;-92
2023/11/29 01:57:39;;;;;;;7.25;2.00;;;;;;;5.41;100.00;97258.09;5019256;28;20045;-93
2023/11/29 02:00:07;;;;;;;9.88;2.50;;;;;;;6.20;100.00;97389.31;5015933;28;20034;-91
2023/11/29 02:02:32;;;;;;;9.60;3.38;;;;;;;4.98;100.00;97248.84;5018303;28;20041;-89
2023/11/29 02:04:59;;;;;;;9.10;2.30;;;;;;;5.61;100.00;97342.72;5018314;28;20053;-92
2023/11/29 02:07:26;;;;;;;10.45;2.55;;;;;;;5.60;100.00;97337.53;5018584;28;20128;-91
2023/11/29 02:09:52;;;;;;;5.13;2.00;;;;;;;5.85;100.00;97354.28;5018273;28;20088;-91
2023/11/29 02:12:20;;;;;;;12.27;2.85;;;;;;;6.19;100.00;97424.53;5017785;28;20049;-92
2023/11/29 02:14:46;;;;;;;6.53;2.28;;;;;;;5.78;100.00;97373.00;5017760;28;20040;-91
2023/11/29 02:17:12;;;;;;;5.45;2.20;;;;;;;6.03;100.00;97396.88;5014602;28;20038;-92
2023/11/29 02:19:38;;;;;;;5.00;1.52;;;;;;;5.91;100.00;97345.34;5018033;28;20394;-90
2023/11/29 02:22:04;;;;;;;12.00;2.30;;;;;;;5.64;100.00;97313.63;5018047;28;20068;-91
2023/11/29 02:24:39;;;;;;;5.97;1.90;;;;;;;5.32;100.00;97291.75;5035426;28;20049;-90
2023/11/29 02:27:06;;;;;;;5.95;2.30;;;;;;;5.29;100.00;97267.22;5022799;28;20045;-91
2023/11/29 02:29:32;;;;;;;10.05;2.85;;;;;;;5.70;100.00;97357.41;5037147;28;20049;-91
2023/11/29 02:31:58;;;;;;;5.47;2.65;;;;;;;5.59;100.00;97323.44;5033971;28;20060;-91
2023/11/29 02:34:24;;;;;;;11.63;2.60;;;;;;;5.16;100.00;97274.63;5036956;28;20041;-91
2023/11/29 02:36:50;;;;;;;8.05;2.45;;;;;;;5.53;100.00;97326.25;5036722;28;20093;-93
2023/11/29 02:39:16;;;;;;;6.47;1.95;;;;;;;5.67;100.00;97353.09;5038458;28;20041;-92
2023/11/29 02:41:42;;;;;;;7.72;1.83;;;;;;;6.16;100.00;97414.09;5035892;28;20061;-91
2023/11/29 02:44:09;;;;;;;13.27;2.83;;;;;;;5.83;100.00;97331.50;5036961;28;20044;-92
2023/11/29 02:46:35;;;;;;;13.95;2.92;;;;;;;5.78;100.00;97363.31;5033848;28;20045;-92
2023/11/29 02:49:01;;;;;;;9.52;2.60;;;;;;;5.88;100.00;97343.66;5038519;28;20048;-92
2023/11/29 02:51:27;;;;;;;5.70;2.28;;;;;;;5.56;100.00;97263.75;5035401;28;20128;-94
2023/11/29 02:53:53;;;;;;;7.28;2.45;;;;;;;6.67;100.00;97445.00;5033376;28;20136;-91
2023/11/29 02:56:19;;;;;;;10.45;2.28;;;;;;;6.41;100.00;97421.22;5032439;28;20060;-90
2023/11/29 02:58:45;;;;;;;6.47;2.30;;;;;;;6.06;100.00;97333.47;5053844;28;20029;-92
2023/11/29 03:01:13;;;;;;;4.13;1.63;;;;;;;6.24;100.00;97371.59;5034482;28;20041;-93
2023/11/29 03:03:39;;;;;;;6.05;1.88;;;;;;;6.79;100.00;97457.81;5036940;28;21286;-92
2023/11/29 03:06:05;;;;;;;4.85;1.98;;;;;;;6.36;100.00;97377.34;5037548;28;20052;-93
2023/11/29 03:08:31;;;;;;;13.13;4.20;;;;;;;6.12;100.00;97346.47;5035831;28;20436;-93
2023/11/29 03:10:57;;;;;;;7.88;2.55;;;;;;;6.50;100.00;97407.72;5035810;28;20077;-92
2023/11/29 03:13:26;;;;;;;4.60;1.95;;;;;;;6.62;100.00;97414.41;5036846;28;20060;-93
2023/11/29 03:15:52;;;;;;;7.22;2.28;;;;;;;6.32;100.00;97359.03;5034976;28;20162;-91
2023/11/29 03:18:19;;;;;;;6.50;1.80;;;;;;;6.46;100.00;97361.19;5038082;28;20067;-93
2023/11/29 03:20:45;;;;;;;14.10;2.35;;;;;;;7.08;100.00;97474.47;5037542;28;20486;-92
2023/11/29 03:23:11;;;;;;;6.78;3.05;;;;;;;6.53;100.00;97394.44;5036877;28;20041;-91
2023/11/29 03:25:38;;;;;;;5.93;1.70;;;;;;;6.31;100.00;97337.03;5035638;28;20045;-90
2023/11/29 03:28:04;;;;;;;7.68;2.08;;;;;;;7.19;100.00;97472.31;5035718;28;20827;-94
2023/11/29 03:30:30;;;;;;;11.02;2.72;;;;;;;6.67;100.00;97389.53;5034008;28;20048;-91
2023/11/29 03:32:56;;;;;;;7.95;2.03;;;;;;;6.50;100.00;97339.06;5036636;28;20033;-91
2023/11/29 03:35:23;;;;;;;6.30;2.15;;;;;;;7.13;100.00;97411.72;5036446;28;20128;-90
2023/11/29 03:37:49;;;;;;;8.75;1.98;;;;;;;7.20;100.00;97425.63;5036476;28;20530;-90
2023/11/29 03:40:15;;;;;;;11.73;2.97;;;;;;;6.37;100.00;97302.50;5036722;28;20064;-93
2023/11/29 03:42:41;;;;;;;10.48;2.58;;;;;;;6.70;100.00;97363.03;5037103;28;20127;-91
2023/11/29 03:45:07;;;;;;;7.55;1.92;;;;;;;7.26;100.00;97461.53;5034934;28;20471;-93
2023/11/29 03:47:33;;;;;;;6.30;2.10;;;;;;;6.63;100.00;97377.34;5036787;28;20065;-91
2023/11/29 03:49:59;;;;;;;8.65;2.53;;;;;;;6.43;100.00;97367.44;5036448;28;20064;-91
2023/11/29 03:52:26;;;;;;;3.05;1.80;;;;;;;6.55;100.00;97380.25;5037211;28;20067;-93
2023/11/29 03:54:52;;;;;;;4.65;2.00;;;;;;;6.82;100.00;97429.56;5036856;28;20103;-93
2023/11/29 03:57:18;;;;;;;8.02;2.10;;;;;;;6.12;100.00;97325.38;5036092;28;20029;-92
2023/11/29 03:59:44;;;;;;;9.25;1.85;;;;;;;5.82;100.00;97335.94;5034557;28;20056;-89
2023/11/29 04:02:10;;;;;;;4.50;1.63;;;;;;;5.99;100.00;97426.94;5024895;28;20068;-91
2023/11/29 04:04:37;;;;;;;10.18;2.67;;;;;;;5.88;100.00;97428.09;5036592;28;20072;-93
2023/11/29 04:07:03;;;;;;;8.20;1.83;;;;;;;6.34;100.00;97476.84;5033136;28;20060;-94
2023/11/29 04:09:31;;;;;;;11.82;2.65;;;;;;;6.30;100.00;97472.59;5037057;28;20052;-91
2023/11/29 04:11:57;;;;;;;11.80;2.13;;;;;;;5.89;100.00;97407.84;5036001;28;20040;-92
2023/11/29 04:14:23;;;;;;;7.60;1.77;;;;;;;5.82;100.00;97383.41;5035960;28;20129;-92
2023/11/29 04:16:49;;;;;;;5.47;2.13;;;;;;;6.01;100.00;97406.63;5036411;28;20131;-91
2023/11/29 04:19:15;;;;;;;5.68;2.10;;;;;;;5.69;100.00;97366.25;5036529;28;20123;-90
2023/11/29 04:21:42;;;;;;;7.35;2.47;;;;;;;6.63;100.00;97511.19;5037151;28;20044;-91
2023/11/29 04:24:08;;;;;;;8.73;2.58;;;;;;;6.43;100.00;97491.56;5035056;28;20048;-90
2023/11/29 04:26:36;;;;;;;7.25;2.10;;;;;;;5.74;100.00;97422.34;5043069;28;20041;-93
2023/11/29 04:29:04;;;;;;;7.65;2.85;;;;;;;5.62;100.00;97412.19;5026317;28;20124;-91
2023/11/29 04:31:31;;;;;;;7.97;2.65;;;;;;;5.49;100.00;97412.50;5029058;28;20044;-92
2023/11/29 04:33:57;;;;;;;10.02;2.72;;;;;;;5.00;100.00;97312.88;5039988;28;20461;-92
2023/11/29 04:36:23;;;;;;;10.63;2.13;;;;;;;6.23;100.00;97518.56;5039543;28;20044;-92
2023/11/29 04:38:50;;;;;;;5.40;1.85;;;;;;;5.86;100.00;97445.72;5040672;28;20101;-90
2023/11/29 04:41:16;;;;;;;5.15;1.90;;;;;;;6.00;100.00;97510.47;5037133;28;20049;-90
2023/11/29 04:43:44;;;;;;;6.38;1.90;;;;;;;5.84;100.00;97470.44;5038658;28;20048;-92
2023/11/29 04:46:10;;;;;;;5.72;1.65;;;;;;;5.89;100.00;97490.47;5036662;28;20091;-93
2023/11/29 04:48:36;;;;;;;8.00;1.92;;;;;;;4.77;100.00;97319.66;5057541;28;20433;-92
2023/11/29 04:51:02;;;;;;;8.10;2.17;;;;;;;5.72;100.00;97471.63;5045359;28;20040;-91
2023/11/29 04:53:28;;;;;;;5.68;1.70;;;;;;;5.54;100.00;97458.06;5041071;28;20040;-91
2023/11/29 04:55:55;;;;;;;8.50;2.20;;;;;;;5.53;100.00;97451.06;5039519;28;20107;-91
2023/11/29 04:58:21;;;;;;;3.50;1.50;;;;;;;5.93;100.00;97522.94;5036578;28;20037;-92
2023/11/29 05:00:49;;;;;;;4.88;2.03;;;;;;;5.87;100.00;97547.69;5031089;28;20094;-90
2023/11/29 05:03:15;;;;;;;7.55;2.80;;;;;;;5.54;100.00;97513.44;5052185;28;20539;-92
2023/11/29 05:05:41;;;;;;;5.53;2.40;;;;;;;5.00;100.00;97426.16;5042428;28;20490;-92
2023/11/29 05:08:07;;;;;;;4.05;1.73;;;;;;;5.14;100.00;97451.25;5040787;28;20068;-92
2023/11/29 05:10:33;;;;;;;10.48;2.80;;;;;;;4.82;100.00;97380.97;5038950;28;20044;-90
2023/11/29 05:12:59;;;;;;;8.25;2.20;;;;;;;5.63;100.00;97522.88;5034102;28;20045;-94
2023/11/29 05:15:25;;;;;;;8.07;2.42;;;;;;;5.24;100.00;97470.31;5038589;28;20037;-93
2023/11/29 05:17:52;;;;;;;5.38;2.45;;;;;;;4.79;100.00;97388.94;5042773;28;20040;-92
2023/11/29 05:20:18;;;;;;;7.07;3.28;;;;;;;4.70;100.00;97390.03;5041025;28;20376;-91
2023/11/29 05:22:44;;;;;;;6.28;2.50;;;;;;;4.96;100.00;97401.66;5040935;28;20051;-94
2023/11/29 05:25:10;;;;;;;4.90;2.42;;;;;;;5.55;100.00;97486.19;5040637;28;20130;-91
2023/11/29 05:27:36;;;;;;;3.17;1.92;;;;;;;5.46;100.00;97473.22;5029821;28;20069;-92
2023/11/29 05:30:07;;;;;;;6.30;2.70;;;;;;;5.75;100.00;97532.22;5016935;28;20132;-92
2023/11/29 05:32:33;;;;;;;7.35;2.53;;;;;;;5.05;100.00;97405.81;5016408;28;20042;-91
2023/11/29 05:35:00;;;;;;;7.80;2.55;;;;;;;5.34;100.00;97479.72;5018739;28;20088;-92
2023/11/29 05:37:26;;;;;;;7.70;3.03;;;;;;;6.06;100.00;97592.09;5019472;28;20041;-93
2023/11/29 05:39:52;;;;;;;6.88;2.70;;;;;;;5.19;100.00;97493.28;5019522;28;20095;-91
2023/11/29 05:42:18;;;;;;;9.27;2.92;;;;;;;4.89;100.00;97439.63;5020331;28;20053;-92
2023/11/29 05:44:44;;;;;;;7.18;2.30;;;;;;;4.57;100.00;97367.56;5019573;28;20044;-93
2023/11/29 05:47:10;;;;;;;8.88;2.63;;;;;;;5.24;100.00;97487.91;5019234;28;20037;-92
2023/11/29 05:49:36;;;;;;;6.97;3.00;;;;;;;4.72;100.00;97403.19;5021543;28;20052;-91
2023/11/29 05:52:04;;;;;;;7.38;2.63;;;;;;;5.66;100.00;97556.19;5021518;28;20499;-91
2023/11/29 05:54:30;;;;;;;5.93;2.50;;;;;;;5.50;100.00;97550.47;5021851;28;20038;-91
2023/11/29 05:56:57;;;;;;;5.80;2.58;;;;;;;5.50;100.00;97559.25;5019951;28;20037;-89
2023/11/29 05:59:23;;;;;;;5.45;2.80;;;;;;;5.04;100.00;97462.06;5020496;28;20091;-91
2023/11/29 06:01:51;;;;;;;5.88;2.42;;;;;;;5.13;100.00;97482.91;5018265;28;20072;-91
2023/11/29 06:04:17;;;;;;;5.25;2.00;;;;;;;4.68;100.00;97452.44;5018429;28;20033;-94
2023/11/29 06:06:43;;;;;;;3.55;2.10;;;;;;;5.55;100.00;97585.50;5018140;28;20454;-91
2023/11/29 06:09:11;;;;;;;8.77;2.63;;;;;;;5.28;100.00;97566.00;5017595;28;20034;-93
2023/11/29 06:11:37;;;;;;;4.50;2.10;;;;;;;4.38;100.00;97435.63;5017077;28;20029;-92
2023/11/29 06:14:03;;;;;;;8.50;2.05;;;;;;;4.30;100.00;97406.84;5021502;28;20383;-92
2023/11/29 06:16:29;;;;;;;5.30;2.03;;;;;;;4.41;100.00;97434.69;5019937;28;20418;-94
2023/11/29 06:18:55;;;;;;;7.60;1.90;;;;;;;4.84;100.00;97504.72;5020708;28;20052;-92
2023/11/29 06:21:21;;;;;;;7.32;1.85;;;;;;;4.44;100.00;97434.59;5016931;28;20085;-92
2023/11/29 06:23:47;;;;;;;4.25;1.60;;;;;;;4.84;100.00;97507.38;5016902;28;20046;-94
2023/11/29 06:26:14;;;;;;;6.63;2.35;;;;;;;5.03;100.00;97592.06;5020793;28;20042;-94
2023/11/29 06:28:41;;;;;;;6.60;2.05;;;;;;;5.29;100.00;97609.88;5040779;28;20487;-94
2023/11/29 06:31:07;;;;;;;5.65;1.48;;;;;;;4.91;100.00;97540.56;5041463;28;20040;-94
2023/11/29 06:33:33;;;;;;;7.90;2.05;;;;;;;5.45;100.00;97632.34;5040055;28;20071;-94
2023/11/29 06:36:02;;;;;;;5.18;1.65;;;;;;;4.79;100.00;97485.53;5043208;28;20037;-95
2023/11/29 06:38:31;;;;;;;9.45;2.45;;;;;;;5.67;100.00;97627.38;5042391;28;20073;-92
2023/11/29 06:40:58;;;;;;;10.88;2.10;;;;;;;5.99;100.00;97660.00;5042185;28;20048;-94
2023/11/29 06:43:25;;;;;;;6.05;1.95;;;;;;;5.62;100.00;97594.13;5043496;28;20045;-94
2023/11/29 06:45:51;;;;;;;4.80;2.80;;;;;;;5.19;100.00;97508.25;5041720;28;20051;-93
2023/11/29 06:48:18;;;;;;;4.70;2.42;;;;;;;5.70;100.00;97621.16;5043243;28;20064;-93
2023/11/29 06:50:44;;;;;;;6.18;2.80;;;;;;;5.97;100.00;97651.25;5051603;28;20080;-92
2023/11/29 06:53:10;;;;;;;13.75;4.75;;;;;;;5.89;100.00;97634.72;5040509;28;20068;-94
2023/11/29 06:55:36;;;;;;;25.02;10.48;;;;;;;5.82;100.00;97647.22;5041194;28;20045;-92
2023/11/29 06:58:02;;;;;;;12.90;6.30;;;;;;;4.97;100.00;97521.09;5041732;28;20410;-91
2023/11/29 07:00:29;;;;;;;7.38;3.85;;;;;;;5.68;100.00;97663.41;5039883;28;20047;-93
2023/11/29 07:02:55;;;;;;;10.95;3.40;;;;;;;5.44;100.00;97588.41;5041034;28;20041;-92
2023/11/29 07:05:21;;;;;;;14.82;2.80;;;;;;;6.15;100.00;97665.72;5039081;28;20513;-93
2023/11/29 07:07:48;;;;;;;9.02;3.30;;;;;;;5.68;100.00;97572.84;5040643;28;20036;-92
2023/11/29 07:10:14;;;;;;;8.13;3.88;;;;;;;6.13;100.00;97636.72;5039757;28;20466;-92
2023/11/29 07:12:40;;;;;;;8.50;3.33;;;;;;;5.44;100.00;97551.50;5042267;28;20037;-93
2023/11/29 07:15:07;;;;;;;8.43;3.63;;;;;;;5.82;100.00;97652.50;5041721;28;20041;-94
2023/11/29 07:17:36;;;;;;;6.00;3.35;;;;;;;5.88;100.00;97694.56;5042461;28;20044;-93
2023/11/29 07:20:04;;;;;;;8.52;3.67;;;;;;;5.59;100.00;97644.31;5042287;28;20041;-94
2023/11/29 07:22:32;;;;;;;7.97;3.30;;;;;;;5.04;100.00;97541.97;5034458;28;20108;-93
2023/11/29 07:24:58;;;;;;;5.78;3.88;;;;;;;5.02;100.00;97541.16;5041727;28;20060;-93
2023/11/29 07:27:24;;;;;;;7.88;3.67;;;;;;;6.21;100.00;97755.31;5042590;28;20041;-92
2023/11/29 07:29:50;;;;;;;6.40;4.82;;;;;;;6.28;100.00;97746.31;5041892;28;20047;-93
2023/11/29 07:32:16;;;;;;;11.02;4.95;;;;;;;5.71;100.00;97621.13;5040204;28;20045;-91
2023/11/29 07:34:49;;;;;;;7.85;4.65;;;;;;;5.29;100.00;97534.31;5038653;28;20065;-92
2023/11/29 07:37:19;;;;;;;8.43;4.70;;;;;;;5.52;100.00;97553.94;5041394;28;20029;-92
2023/11/29 07:39:47;;;;;;;7.10;4.28;;;;;;;5.60;100.00;97574.84;5040775;28;20040;-92
2023/11/29 07:42:13;;;;;;;8.40;4.53;;;;;;;5.64;100.00;97560.66;5040934;28;20041;-93
2023/11/29 07:44:39;;;;;;;7.10;3.78;;;;;;;6.46;100.00;97701.84;5040891;28;20037;-94
2023/11/29 07:47:06;;;;;;;5.70;3.88;;;;;;;6.88;100.00;97749.13;5046434;28;20140;-91
2023/11/29 07:49:32;;;;;;;7.18;3.75;;;;;;;6.25;100.00;97613.56;5040685;28;20060;-93
2023/11/29 07:51:59;;;;;;;5.82;2.65;;;;;;;6.69;100.00;97685.38;5039697;28;20048;-93
2023/11/29 07:54:25;;;;;;;9.88;3.17;;;;;;;6.23;100.00;97574.00;5056504;28;20052;-94
2023/11/29 07:56:51;;;;;;;4.45;2.88;;;;;;;7.41;100.00;97765.16;5038353;28;20041;-94
2023/11/29 07:59:17;;;;;;;4.88;2.75;;;;;;;7.56;100.00;97769.97;5037843;28;20036;-91
2023/11/29 08:01:43;;;;;;;6.03;1.70;;;;;;;6.31;100.00;97589.59;5036567;28;20044;-93
2023/11/29 08:04:09;;;;;;;5.15;1.65;;;;;;;6.28;100.00;97605.53;5053065;28;20037;-93
2023/11/29 08:06:35;;;;;;;4.07;2.20;;;;;;;7.23;100.00;97773.66;5035712;28;20056;-92
2023/11/29 08:09:03;;;;;;;8.02;2.08;;;;;;;6.94;100.00;97712.81;5037189;28;20079;-92
2023/11/29 08:11:30;;;;;;;3.58;1.48;;;;;;;6.59;100.00;97631.91;5055735;28;20454;-92
2023/11/29 08:13:56;;;;;;;4.78;2.47;;;;;;;7.37;100.00;97750.28;5036575;28;20056;-93
2023/11/29 08:16:22;;;;;;;5.50;1.73;;;;;;;7.68;100.00;97778.47;5036603;28;20553;-93
2023/11/29 08:18:47;;;;;;;3.85;1.60;;;;;;;7.03;100.00;97679.09;5036130;28;20039;-94
2023/11/29 08:21:14;;;;;;;4.10;2.28;;;;;;;7.63;100.00;97754.78;5041005;28;20042;-93
2023/11/29 08:23:40;;;;;;;10.13;2.15;;;;;;;7.39;100.00;97658.53;5031049;28;20048;-94
2023/11/29 08:26:07;;;;;;;5.57;1.65;;;;;;;7.53;100.00;97650.19;5030605;28;20063;-93
2023/11/29 08:28:33;;;;;;;8.82;1.95;;;;;;;8.23;100.00;97774.00;5035951;28;20060;-93
2023/11/29 08:31:00;;;;;;;7.55;1.92;;;;;;;7.54;100.00;97620.16;5035765;28;20045;-93
2023/11/29 08:33:26;;;;;;;5.30;1.63;;;;;;;8.57;100.00;97751.69;5037468;28;20049;-93
2023/11/29 08:35:52;;;;;;;5.10;1.75;;;;;;;7.99;100.00;97625.66;5051824;28;20052;-94
2023/11/29 08:38:18;;;;;;;6.93;2.60;;;;;;;8.99;100.00;97757.22;5026198;28;20437;-93
2023/11/29 08:40:44;;;;;;;14.60;4.40;;;;;;;8.19;100.00;97619.66;5034869;28;20047;-92
2023/11/29 08:43:11;;;;;;;10.15;4.70;;;;;;;9.05;100.00;97748.19;5037623;28;20502;-93
2023/11/29 08:45:37;;;;;;;10.80;4.72;;;;;;;9.15;100.00;97770.78;5038779;28;20506;-92
2023/11/29 08:48:03;;;;;;;13.10;5.63;;;;;;;8.54;100.00;97659.06;5038361;28;20041;-92
2023/11/29 08:50:29;;;;;;;8.40;4.72;;;;;;;9.55;100.00;97810.88;5038178;28;20048;-93
2023/11/29 08:52:55;;;;;;;17.02;7.53;;;;;;;9.29;100.00;97750.84;5037554;28;20052;-93
2023/11/29 08:55:21;;;;;;;20.60;8.82;;;;;;;9.24;100.00;97730.66;5040572;28;20052;-93
2023/11/29 08:57:48;;;;;;;15.10;6.55;;;;;;;8.72;100.00;97642.50;5052471;28;20454;-93
2023/11/29 09:00:20;;;;;;;13.15;5.63;;;;;;;9.11;100.00;97700.22;5037783;28;20053;-94
2023/11/29 09:02:46;;;;;;;8.82;5.88;;;;;;;9.25;100.00;97708.50;5038371;28;20145;-93
2023/11/29 09:05:12;;;;;;;8.55;5.00;;;;;;;9.36;100.00;97712.53;5036719;28;20064;-93
2023/11/29 09:07:38;;;;;;;10.32;6.13;;;;;;;9.80;100.00;97785.09;5037833;28;20063;-92
2023/11/29 09:10:05;;;;;;;10.02;5.63;;;;;;;9.73;100.00;97765.00;5040080;28;20483;-93
2023/11/29 09:12:31;;;;;;;8.73;4.85;;;;;;;9.27;100.00;97684.56;5043407;28;20384;-93
2023/11/29 09:14:57;;;;;;;14.02;6.60;;;;;;;9.31;100.00;97680.00;5038968;28;20049;-93
2023/11/29 09:17:24;;;;;;;9.70;4.72;;;;;;;9.97;100.00;97800.34;5035020;28;20379;-92
2023/11/29 09:19:51;;;;;;;7.00;2.95;;;;;;;9.05;100.00;97713.72;5043379;28;20041;-93
2023/11/29 09:22:18;;;;;;;9.90;4.28;;;;;;;8.53;100.00;97781.88;5042222;28;20040;-94
2023/11/29 09:24:44;;;;;;;4.35;2.63;;;;;;;8.17;100.00;97674.44;5040339;28;20072;-93
2023/11/29 09:27:11;;;;;;;10.18;2.95;;;;;;;8.90;100.00;97754.06;5039620;28;20069;-93
2023/11/29 09:29:38;;;;;;;6.18;2.60;;;;;;;9.39;100.00;97822.06;5040927;28;20051;-94
2023/11/29 09:32:05;;;;;;;6.20;2.30;;;;;;;9.10;100.00;97812.50;5041561;28;20041;-94
2023/11/29 09:34:32;;;;;;;5.30;2.30;;;;;;;8.74;100.00;97740.47;5041558;28;20055;-92
2023/11/29 09:37:00;;;;;;;7.13;2.83;;;;;;;9.25;100.00;97811.94;5057944;28;20044;-93
2023/11/29 09:39:26;;;;;;;5.43;2.22;;;;;;;9.45;100.00;97810.34;5056878;28;20041;-94
2023/11/29 09:41:52;;;;;;;9.23;2.63;;;;;;;9.14;100.00;97795.56;5040431;28;20037;-93
2023/11/29 09:44:19;;;;;;;5.85;2.03;;;;;;;8.59;100.00;97699.53;5033554;28;20130;-94
2023/11/29 09:46:45;;;;;;;7.90;3.08;;;;;;;8.59;100.00;97681.81;5040486;28;20139;-92
2023/11/29 09:49:11;;;;;;;9.95;2.70;;;;;;;8.60;100.00;97699.44;5039051;28;20067;-93
2023/11/29 09:51:39;;;;;;;7.00;2.95;;;;;;;9.34;100.00;97807.22;5035316;28;20059;-94
2023/11/29 09:54:05;;;;;;;11.25;3.00;;;;;;;8.72;100.00;97697.25;5038539;28;20057;-93
2023/11/29 09:56:30;;;;;;;8.45;3.17;;;;;;;9.56;100.00;97804.63;5040964;28;20563;-93
2023/11/29 09:58:57;;;;;;;9.43;2.95;;;;;;;9.24;100.00;97754.53;5029552;28;20052;-93
2023/11/29 10:01:23;;;;;;;6.32;2.65;;;;;;;10.07;100.00;97828.25;5050328;28;20486;-92
2023/11/29 10:04:04;;;;;;;10.50;2.95;;;;;;;9.86;100.00;97741.50;5039944;28;20048;-93
2023/11/29 10:06:30;;;;;;;8.38;2.50;;;;;;;9.38;100.00;97662.91;5041600;28;20041;-93
2023/11/29 10:08:58;;;;;;;13.18;2.80;;;;;;;9.55;100.00;97670.22;5040139;28;20041;-92
2023/11/29 10:11:25;;;;;;;8.43;3.00;;;;;;;10.30;100.00;97756.53;5040610;28;20072;-92
2023/11/29 10:13:51;;;;;;;10.30;3.38;;;;;;;9.60;100.00;97658.47;5041505;28;20103;-92
2023/11/29 10:16:20;;;;;;;7.28;2.97;;;;;;;10.05;100.00;97795.59;5039120;28;20041;-92
2023/11/29 10:18:47;;;;;;;10.85;3.35;;;;;;;9.12;100.00;97659.50;5039122;28;20488;-94
2023/11/29 10:21:13;;;;;;;10.93;3.88;;;;;;;8.81;100.00;97642.13;5033881;28;20037;-93
2023/11/29 10:23:40;;;;;;;8.82;3.30;;;;;;;9.62;100.00;97788.47;5038613;28;20525;-93
2023/11/29 10:26:08;;;;;;;6.00;2.92;;;;;;;9.11;100.00;97649.84;5057182;28;20215;-93
2023/11/29 10:28:34;;;;;;;8.50;3.72;;;;;;;10.10;100.00;97728.13;5039941;28;20502;-94
2023/11/29 10:31:01;;;;;;;6.95;2.72;;;;;;;10.28;100.00;97784.03;5039379;28;20037;-93
2023/11/29 10:33:30;;;;;;;5.80;3.03;;;;;;;10.06;100.00;97817.69;5039264;28;20102;-93
2023/11/29 10:35:57;;;;;;;10.13;4.38;;;;;;;9.80;100.00;97742.63;5038186;28;20414;-93
2023/11/29 10:38:26;;;;;;;8.90;2.63;;;;;;;9.65;100.00;97668.91;5039096;28;20037;-93
2023/11/29 10:40:52;;;;;;;6.25;3.03;;;;;;;10.50;100.00;97804.41;5038104;28;20048;-91
2023/11/29 10:43:23;;;;;;;11.90;3.03;;;;;;;9.17;100.00;97643.41;5037882;28;20041;-93
2023/11/29 10:45:53;;;;;;;7.72;2.83;;;;;;;9.73;100.00;97636.72;5037574;28;20049;-94
2023/11/29 10:48:23;;;;;;;13.52;2.72;;;;;;;9.72;100.00;97653.59;5037591;28;20087;-94
2023/11/29 10:50:49;;;;;;;5.90;2.50;;;;;;;10.15;100.00;97673.88;5038671;28;20049;-94
2023/11/29 10:53:16;;;;;;;10.98;3.58;;;;;;;10.05;100.00;97659.25;5037544;28;20060;-95
2023/11/29 10:55:43;;;;;;;8.00;3.00;;;;;;;10.26;100.00;97698.19;5037502;28;20128;-93
2023/11/29 10:58:19;;;;;;;4.80;1.73;;;;;;;10.59;100.00;97688.84;5040231;28;20051;-93
2023/11/29 11:00:46;;;;;;;10.45;2.28;;;;;;;11.37;100.00;97775.75;5044147;28;20048;-93
2023/11/29 11:03:40;;;;;;;6.55;1.63;;;;;;;10.83;100.00;97674.44;5043823;28;20045;-96
2023/11/29 11:06:40;;;;;;;8.95;3.17;;;;;;;10.86;100.00;97674.31;5043434;28;20049;-94
2023/11/29 11:09:44;;;;;;;8.63;3.83;;;;;;;11.60;100.00;97782.69;5036428;28;20029;-93
2023/11/29 11:12:34;;;;;;;7.97;3.22;;;;;;;10.87;100.00;97657.41;5021041;28;20063;-94
2023/11/29 11:15:07;;;;;;;6.97;2.95;;;;;;;11.39;100.00;97725.09;5043074;28;20048;-94
2023/11/29 11:17:35;;;;;;;7.53;3.35;;;;;;;11.65;100.00;97777.13;5042908;28;20029;-95
2023/11/29 11:20:04;;;;;;;13.38;3.92;;;;;;;11.27;100.00;97681.28;5041471;28;20049;-94
2023/11/29 11:22:32;;;;;;;9.32;3.05;;;;;;;10.99;100.00;97636.50;5040136;28;20077;-93
2023/11/29 11:25:06;;;;;;;7.90;3.25;;;;;;;11.72;100.00;97763.44;5039605;28;20049;-94
2023/11/29 11:27:34;;;;;;;7.38;2.53;;;;;;;10.97;100.00;97628.56;5042038;28;20041;-94
2023/11/29 11:30:18;;;;;;;6.50;2.10;;;;;;;11.29;100.00;97687.41;5041026;28;20079;-93